createdAt,value
2019-01-08T00:01:42.230Z,8.60
2019-01-08T00:04:11.617Z,8.60
2019-01-08T00:06:41.046Z,8.50
2019-01-08T00:09:10.498Z,8.50
2019-01-08T00:11:39.910Z,8.50
2019-01-08T00:14:09.322Z,8.50
2019-01-08T00:16:38.726Z,8.40
2019-01-08T00:19:08.150Z,8.40
2019-01-08T00:21:37.765Z,8.40
2019-01-08T00:24:07.428Z,8.40
2019-01-08T00:26:36.837Z,8.50
2019-01-08T00:29:06.259Z,8.40
2019-01-08T00:31:35.665Z,8.40
2019-01-08T00:34:05.090Z,8.40
2019-01-08T00:36:34.893Z,8.40
2019-01-08T00:39:04.855Z,8.30
2019-01-08T00:41:34.482Z,8.30
2019-01-08T00:44:03.911Z,8.30
2019-01-08T00:46:33.364Z,8.30
2019-01-08T00:49:02.842Z,8.30
2019-01-08T00:51:32.275Z,8.30
2019-01-08T00:54:01.686Z,8.30
2019-01-08T00:56:43.722Z,8.30
2019-01-08T00:59:13.190Z,8.30
2019-01-08T01:01:42.606Z,8.30
2019-01-08T01:04:12.282Z,8.20
2019-01-08T01:06:41.698Z,8.20
2019-01-08T01:09:11.106Z,8.20
2019-01-08T01:11:40.562Z,8.10
2019-01-08T01:14:09.998Z,8.10
2019-01-08T01:16:39.434Z,8.20
2019-01-08T01:19:08.836Z,8.20
2019-01-08T01:21:38.453Z,8.20
2019-01-08T01:24:08.122Z,8.20
2019-01-08T01:26:37.535Z,8.20
2019-01-08T01:29:06.956Z,8.20
2019-01-08T01:31:36.370Z,8.20
2019-01-08T01:34:05.802Z,8.10
2019-01-08T01:36:35.398Z,8.10
2019-01-08T01:39:06.128Z,8.10
2019-01-08T01:41:35.810Z,8.10
2019-01-08T01:44:05.229Z,8.10
2019-01-08T01:46:34.644Z,8.10
2019-01-08T01:49:04.062Z,8.10
2019-01-08T01:51:33.486Z,8.00
2019-01-08T01:54:02.897Z,8.00
2019-01-08T01:56:32.398Z,8.00
2019-01-08T01:59:08.379Z,8.10
2019-01-08T02:01:33.654Z,8.10
2019-01-08T02:04:03.071Z,8.10
2019-01-08T02:06:32.495Z,8.10
2019-01-08T02:09:01.930Z,8.10
2019-01-08T02:11:32.838Z,8.10
2019-01-08T02:14:02.246Z,8.20
2019-01-08T02:16:31.665Z,8.10
2019-01-08T02:19:01.088Z,8.10
2019-01-08T02:21:30.558Z,8.10
2019-01-08T02:24:00.211Z,8.10
2019-01-08T02:26:29.626Z,8.10
2019-01-08T02:28:59.058Z,8.10
2019-01-08T02:31:28.474Z,8.10
2019-01-08T02:33:57.898Z,8.10
2019-01-08T02:36:27.509Z,8.10
2019-01-08T02:38:57.023Z,8.10
2019-01-08T02:41:26.522Z,8.10
2019-01-08T02:43:56.458Z,8.10
2019-01-08T02:46:25.993Z,8.20
2019-01-08T02:48:55.468Z,8.10
2019-01-08T02:51:24.906Z,8.10
2019-01-08T02:53:54.325Z,8.10
2019-01-08T02:56:23.789Z,8.10
2019-01-08T02:58:53.262Z,8.10
2019-01-08T03:01:22.687Z,8.10
2019-01-08T03:03:52.098Z,8.20
2019-01-08T03:06:21.706Z,8.10
2019-01-08T03:08:51.127Z,8.10
2019-01-08T03:11:20.581Z,8.10
2019-01-08T03:13:49.998Z,8.10
2019-01-08T03:16:19.446Z,8.10
2019-01-08T03:18:48.854Z,8.00
2019-01-08T03:21:18.562Z,8.00
2019-01-08T03:23:48.027Z,8.00
2019-01-08T03:26:17.442Z,8.00
2019-01-08T03:28:46.907Z,8.00
2019-01-08T03:31:16.338Z,7.90
2019-01-08T03:33:45.755Z,8.00
2019-01-08T03:36:15.298Z,8.00
2019-01-08T03:38:44.746Z,8.00
2019-01-08T03:41:14.221Z,8.00
2019-01-08T03:43:43.682Z,8.10
2019-01-08T03:46:13.374Z,8.10
2019-01-08T03:48:42.787Z,8.10
2019-01-08T03:51:12.311Z,8.00
2019-01-08T03:53:41.826Z,8.10
2019-01-08T03:56:11.246Z,8.10
2019-01-08T03:58:40.678Z,8.10
2019-01-08T04:01:11.070Z,8.10
2019-01-08T04:03:40.495Z,8.10
2019-01-08T04:06:09.911Z,8.00
2019-01-08T04:08:39.354Z,8.00
2019-01-08T04:11:08.813Z,8.00
2019-01-08T04:13:39.305Z,8.10
2019-01-08T04:16:08.750Z,8.10
2019-01-08T04:18:39.242Z,8.10
2019-01-08T04:21:09.026Z,8.10
2019-01-08T04:23:38.470Z,8.10
2019-01-08T04:26:08.106Z,8.10
2019-01-08T04:28:37.558Z,8.10
2019-01-08T04:31:07.969Z,8.10
2019-01-08T04:33:37.398Z,8.10
2019-01-08T04:36:06.858Z,8.10
2019-01-08T04:38:36.350Z,8.10
2019-01-08T04:41:05.810Z,8.10
2019-01-08T04:43:35.232Z,8.10
2019-01-08T04:46:04.714Z,8.10
2019-01-08T04:48:34.166Z,8.00
2019-01-08T04:51:03.750Z,8.00
2019-01-08T04:53:33.166Z,8.10
2019-01-08T04:56:02.594Z,8.00
2019-01-08T04:58:32.014Z,8.00
2019-01-08T05:01:01.451Z,8.10
2019-01-08T05:03:30.858Z,8.00
2019-01-08T05:06:00.274Z,8.10
2019-01-08T05:08:29.718Z,8.10
2019-01-08T05:10:59.130Z,8.10
2019-01-08T05:13:28.723Z,8.20
2019-01-08T05:15:58.141Z,8.20
2019-01-08T05:18:27.553Z,8.40
2019-01-08T05:20:57.239Z,8.40
2019-01-08T05:23:26.674Z,8.40
2019-01-08T05:25:56.156Z,8.40
2019-01-08T05:28:25.571Z,8.40
2019-01-08T05:30:54.983Z,8.40
2019-01-08T05:33:24.398Z,8.40
2019-01-08T05:35:54.580Z,8.40
2019-01-08T05:38:24.041Z,8.50
2019-01-08T05:40:53.499Z,8.50
2019-01-08T05:43:22.935Z,8.50
2019-01-08T05:45:52.345Z,8.40
2019-01-08T05:48:22.002Z,8.40
2019-01-08T05:50:51.438Z,8.40
2019-01-08T05:53:20.890Z,8.40
2019-01-08T05:55:50.352Z,8.50
2019-01-08T05:58:19.774Z,8.40
2019-01-08T06:00:49.192Z,8.40
2019-01-08T06:03:18.614Z,8.30
2019-01-08T06:05:48.075Z,8.00
2019-01-08T06:08:17.526Z,7.30
2019-01-08T06:10:46.949Z,6.80
2019-01-08T06:13:16.406Z,6.70
2019-01-08T06:15:45.839Z,6.60
2019-01-08T06:18:15.273Z,6.50
2019-01-08T06:20:44.682Z,6.50
2019-01-08T06:23:14.114Z,6.40
2019-01-08T06:25:43.543Z,6.40
2019-01-08T06:28:12.978Z,6.60
2019-01-08T06:30:42.386Z,6.60
2019-01-08T06:33:11.816Z,6.70
2019-01-08T06:35:41.273Z,6.80
2019-01-08T06:38:10.714Z,7.00
2019-01-08T06:40:41.213Z,7.30
2019-01-08T06:43:10.634Z,7.60
2019-01-08T06:45:40.132Z,7.70
2019-01-08T06:48:09.821Z,7.80
2019-01-08T06:50:39.258Z,7.80
2019-01-08T06:53:08.734Z,7.70
2019-01-08T06:55:38.150Z,7.70
2019-01-08T06:58:07.597Z,7.60
2019-01-08T07:00:37.017Z,7.60
2019-01-08T07:03:07.330Z,7.70
2019-01-08T07:05:36.799Z,7.80
2019-01-08T07:08:06.250Z,7.80
2019-01-08T07:10:35.678Z,7.80
2019-01-08T07:13:05.121Z,7.80
2019-01-08T07:15:34.533Z,7.80
2019-01-08T07:18:03.966Z,7.80
2019-01-08T07:20:33.675Z,7.80
2019-01-08T07:23:03.118Z,7.80
2019-01-08T07:25:32.566Z,7.70
2019-01-08T07:28:02.419Z,7.70
2019-01-08T07:30:31.866Z,7.70
2019-01-08T07:33:01.310Z,7.70
2019-01-08T07:35:30.754Z,7.70
2019-01-08T07:38:00.551Z,7.70
2019-01-08T07:40:29.974Z,7.70
2019-01-08T07:42:59.413Z,7.90
2019-01-08T07:45:28.855Z,7.90
2019-01-08T07:47:58.350Z,8.00
2019-01-08T07:50:27.777Z,8.00
2019-01-08T07:52:57.425Z,8.00
2019-01-08T07:55:26.841Z,8.00
2019-01-08T07:57:56.298Z,8.00
2019-01-08T08:00:25.706Z,8.10
2019-01-08T08:02:55.120Z,8.10
2019-01-08T08:05:24.565Z,8.10
2019-01-08T08:07:54.515Z,8.00
2019-01-08T08:10:24.022Z,7.80
2019-01-08T08:12:53.426Z,7.70
2019-01-08T08:15:22.858Z,7.60
2019-01-08T08:17:52.285Z,7.60
2019-01-08T08:20:21.713Z,7.70
2019-01-08T08:22:51.150Z,7.70
2019-01-08T08:25:20.594Z,7.80
2019-01-08T08:27:50.026Z,7.90
2019-01-08T08:30:19.506Z,7.90
2019-01-08T08:32:48.914Z,8.00
2019-01-08T08:35:18.434Z,8.00
2019-01-08T08:37:47.906Z,8.10
2019-01-08T08:40:17.362Z,8.10
2019-01-08T08:42:46.921Z,8.20
2019-01-08T08:45:16.373Z,8.20
2019-01-08T08:47:45.802Z,8.30
2019-01-08T08:50:15.222Z,8.30
2019-01-08T08:52:44.715Z,8.30
2019-01-08T08:55:14.458Z,8.30
2019-01-08T08:57:43.890Z,8.30
2019-01-08T09:00:13.338Z,8.40
2019-01-08T09:02:42.773Z,8.30
2019-01-08T09:05:12.190Z,8.30
2019-01-08T09:07:41.630Z,8.30
2019-01-08T09:10:11.045Z,8.40
2019-01-08T09:12:40.487Z,8.30
2019-01-08T09:15:09.919Z,8.30
2019-01-08T09:17:39.356Z,8.30
2019-01-08T09:20:09.616Z,8.20
2019-01-08T09:22:39.058Z,8.10
2019-01-08T09:25:08.480Z,8.10
2019-01-08T09:27:38.129Z,8.20
2019-01-08T09:30:09.206Z,8.20
2019-01-08T09:32:38.655Z,8.30
2019-01-08T09:35:08.078Z,8.30
2019-01-08T09:37:37.890Z,8.30
2019-01-08T09:40:07.365Z,8.30
2019-01-08T09:42:36.806Z,8.40
2019-01-08T09:45:07.185Z,8.30
2019-01-08T09:47:36.601Z,8.20
2019-01-08T09:50:07.190Z,8.20
2019-01-08T09:52:36.814Z,8.10
2019-01-08T09:55:06.562Z,8.20
2019-01-08T09:57:36.024Z,8.30
2019-01-08T10:00:05.862Z,8.40
2019-01-08T10:02:35.271Z,8.50
2019-01-08T10:05:04.710Z,8.50
2019-01-08T10:07:34.130Z,8.50
2019-01-08T10:10:03.615Z,8.50
2019-01-08T10:12:33.025Z,8.50
2019-01-08T10:15:02.466Z,8.50
2019-01-08T10:17:31.878Z,8.50
2019-01-08T10:20:01.548Z,8.60
2019-01-08T10:22:30.954Z,8.60
2019-01-08T10:25:00.463Z,8.60
2019-01-08T10:27:29.885Z,8.50
2019-01-08T10:29:59.340Z,8.50
2019-01-08T10:32:28.761Z,8.60
2019-01-08T10:34:59.500Z,8.60
2019-01-08T10:37:29.294Z,8.60
2019-01-08T10:39:58.766Z,8.60
2019-01-08T10:42:28.233Z,8.60
2019-01-08T10:44:57.657Z,8.70
2019-01-08T10:47:27.083Z,8.70
2019-01-08T10:49:56.502Z,8.70
2019-01-08T10:52:25.926Z,8.70
2019-01-08T10:54:55.407Z,8.60
2019-01-08T10:57:25.930Z,8.50
2019-01-08T10:59:55.369Z,8.60
2019-01-08T11:02:24.969Z,8.70
2019-01-08T11:04:54.531Z,8.60
2019-01-08T11:07:23.966Z,8.50
2019-01-08T11:09:53.394Z,8.40
2019-01-08T11:12:22.818Z,8.40
2019-01-08T11:14:52.350Z,8.50
2019-01-08T11:17:21.773Z,8.50
2019-01-08T11:19:51.211Z,8.60
2019-01-08T11:22:20.630Z,8.70
2019-01-08T11:24:50.079Z,8.60
2019-01-08T11:27:20.606Z,8.70
2019-01-08T11:29:50.042Z,8.70
2019-01-08T11:32:19.474Z,8.70
2019-01-08T11:34:48.918Z,8.70
2019-01-08T11:37:18.539Z,8.70
2019-01-08T11:39:47.993Z,8.80
2019-01-08T11:42:17.452Z,8.80
2019-01-08T11:44:46.898Z,8.80
2019-01-08T11:47:16.318Z,8.80
2019-01-08T11:49:45.747Z,8.90
2019-01-08T11:52:15.182Z,8.90
2019-01-08T11:54:45.714Z,9.00
2019-01-08T11:57:15.166Z,9.10
2019-01-08T11:59:44.726Z,9.10
2019-01-08T12:02:14.223Z,9.00
2019-01-08T12:04:43.647Z,8.90
2019-01-08T12:07:13.093Z,8.90
2019-01-08T12:09:42.557Z,8.80
2019-01-08T12:12:58.113Z,8.90
2019-01-08T12:15:28.770Z,8.90
2019-01-08T12:17:59.158Z,8.90
2019-01-08T12:20:28.626Z,9.00
2019-01-08T12:22:58.063Z,9.00
2019-01-08T12:25:29.463Z,9.00
2019-01-08T12:27:58.682Z,9.00
2019-01-08T12:30:28.190Z,8.90
2019-01-08T12:32:57.634Z,8.80
2019-01-08T12:35:27.054Z,8.80
2019-01-08T12:37:56.563Z,8.70
2019-01-08T12:40:26.157Z,8.70
2019-01-08T12:42:55.626Z,8.70
2019-01-08T12:45:25.090Z,8.80
2019-01-08T12:47:54.478Z,8.80
2019-01-08T12:50:23.891Z,8.80
2019-01-08T12:52:53.341Z,8.70
2019-01-08T12:55:22.772Z,8.70
2019-01-08T12:57:52.430Z,8.70
2019-01-08T13:00:21.895Z,8.70
2019-01-08T13:02:51.306Z,8.70
2019-01-08T13:05:20.741Z,8.70
2019-01-08T13:07:50.177Z,8.70
2019-01-08T13:10:19.609Z,8.80
2019-01-08T13:12:49.023Z,8.80
2019-01-08T13:15:18.470Z,8.80
2019-01-08T13:17:47.902Z,8.80
2019-01-08T13:20:18.402Z,8.70
2019-01-08T13:22:47.838Z,8.70
2019-01-08T13:25:17.346Z,8.70
2019-01-08T13:27:46.769Z,8.70
2019-01-08T13:30:16.215Z,8.70
2019-01-08T13:32:45.647Z,8.60
2019-01-08T13:35:15.747Z,8.60
2019-01-08T13:37:45.435Z,8.60
2019-01-08T13:40:14.886Z,8.60
2019-01-08T13:42:44.317Z,8.60
2019-01-08T13:45:13.754Z,8.60
2019-01-08T13:47:55.976Z,8.60
2019-01-08T13:50:25.410Z,8.70
2019-01-08T13:52:54.839Z,8.60
2019-01-08T13:55:24.467Z,8.60
2019-01-08T13:57:53.959Z,8.70
2019-01-08T14:00:23.702Z,8.60
2019-01-08T14:02:53.127Z,8.60
2019-01-08T14:05:22.561Z,8.60
2019-01-08T14:07:52.167Z,8.60
2019-01-08T14:10:21.628Z,8.60
2019-01-08T14:12:51.625Z,8.50
2019-01-08T14:15:21.270Z,8.40
2019-01-08T14:17:50.728Z,8.30
2019-01-08T14:20:20.134Z,8.30
2019-01-08T14:22:49.549Z,8.30
2019-01-08T14:25:18.994Z,8.30
2019-01-08T14:27:48.418Z,8.30
2019-01-08T14:30:17.853Z,8.40
2019-01-08T14:32:47.307Z,8.40
2019-01-08T14:35:16.726Z,8.40
2019-01-08T14:37:46.174Z,8.40
2019-01-08T14:40:15.929Z,8.40
2019-01-08T14:42:45.404Z,8.30
2019-01-08T14:45:14.966Z,8.30
2019-01-08T14:47:44.389Z,8.20
2019-01-08T14:50:13.874Z,8.20
2019-01-08T14:52:43.319Z,8.20
2019-01-08T14:55:13.020Z,8.10
2019-01-08T14:57:42.431Z,7.90
2019-01-08T15:00:12.418Z,7.80
2019-01-08T15:02:49.563Z,7.70
2019-01-08T15:05:13.011Z,7.70
2019-01-08T15:07:42.458Z,7.70
2019-01-08T15:10:11.886Z,7.70
2019-01-08T15:12:41.305Z,7.70
2019-01-08T15:15:12.800Z,7.60
2019-01-08T15:17:41.874Z,7.60
2019-01-08T15:20:11.290Z,7.60
2019-01-08T15:22:40.698Z,7.70
2019-01-08T15:25:10.143Z,7.60
2019-01-08T15:27:39.589Z,7.60
2019-01-08T15:30:10.034Z,7.60
2019-01-08T15:32:40.514Z,7.60
2019-01-08T15:35:09.946Z,7.60
2019-01-08T15:37:39.506Z,7.70
2019-01-08T15:40:08.961Z,7.70
2019-01-08T15:42:38.398Z,7.70
2019-01-08T15:45:07.857Z,7.70
2019-01-08T15:47:38.357Z,7.80
2019-01-08T15:50:07.808Z,7.80
2019-01-08T15:52:37.651Z,7.80
2019-01-08T15:55:07.121Z,7.80
2019-01-08T15:57:36.542Z,7.80
2019-01-08T16:00:07.426Z,7.70
2019-01-08T16:02:36.923Z,7.70
2019-01-08T16:05:07.110Z,7.70
2019-01-08T16:07:36.593Z,7.60
2019-01-08T16:10:06.667Z,7.60
2019-01-08T16:12:36.114Z,7.50
2019-01-08T16:15:08.593Z,7.50
2019-01-08T16:17:38.025Z,7.40
2019-01-08T16:20:07.677Z,7.40
2019-01-08T16:22:38.090Z,7.40
2019-01-08T16:25:07.514Z,7.40
2019-01-08T16:27:36.945Z,7.40
2019-01-08T16:30:06.438Z,7.40
2019-01-08T16:32:35.919Z,7.50
2019-01-08T16:35:05.531Z,7.50
2019-01-08T16:37:35.070Z,7.60
2019-01-08T16:40:05.178Z,7.40
2019-01-08T16:42:34.622Z,7.00
2019-01-08T16:45:04.402Z,6.70
2019-01-08T16:47:34.998Z,6.50
2019-01-08T16:50:04.747Z,6.50
2019-01-08T16:52:34.541Z,6.50
2019-01-08T16:55:03.994Z,6.60
2019-01-08T16:57:33.442Z,6.70
2019-01-08T17:00:03.015Z,6.70
2019-01-08T17:02:33.112Z,6.70
2019-01-08T17:05:02.660Z,6.80
2019-01-08T17:07:32.326Z,6.80
2019-01-08T17:10:01.933Z,6.90
2019-01-08T17:12:31.566Z,6.90
2019-01-08T17:15:00.998Z,6.80
2019-01-08T17:17:30.422Z,6.60
2019-01-08T17:19:59.879Z,6.40
2019-01-08T17:22:29.494Z,6.30
2019-01-08T17:24:59.926Z,6.30
2019-01-08T17:27:29.331Z,6.30
2019-01-08T17:29:58.758Z,6.30
2019-01-08T17:32:28.203Z,6.40
2019-01-08T17:34:57.693Z,6.50
2019-01-08T17:37:28.375Z,6.70
2019-01-08T17:39:57.835Z,6.70
2019-01-08T17:42:27.253Z,6.80
2019-01-08T17:44:56.698Z,6.90
2019-01-08T17:47:38.067Z,7.00
2019-01-08T17:50:07.525Z,6.90
2019-01-08T17:52:36.934Z,6.90
2019-01-08T17:55:06.590Z,7.00
2019-01-08T17:57:36.030Z,7.00
2019-01-08T18:00:08.744Z,7.00
2019-01-08T18:02:39.813Z,7.00
2019-01-08T18:05:12.079Z,7.00
2019-01-08T18:07:41.553Z,7.00
2019-01-08T18:10:10.974Z,6.90
2019-01-08T18:12:40.393Z,6.90
2019-01-08T18:15:09.897Z,6.90
2019-01-08T18:17:39.472Z,6.80
2019-01-08T18:20:09.171Z,6.80
2019-01-08T18:22:40.091Z,6.80
2019-01-08T18:25:09.546Z,6.80
2019-01-08T18:27:39.009Z,6.70
2019-01-08T18:30:08.441Z,6.80
2019-01-08T18:32:37.886Z,6.80
2019-01-08T18:35:07.335Z,6.80
2019-01-08T18:37:36.786Z,6.80
2019-01-08T18:40:06.275Z,6.80
2019-01-08T18:42:36.304Z,6.80
2019-01-08T18:45:06.107Z,6.70
2019-01-08T18:47:35.841Z,6.70
2019-01-08T18:50:05.733Z,6.60
2019-01-08T18:52:35.158Z,6.60
2019-01-08T18:55:04.583Z,6.60
2019-01-08T18:57:34.166Z,6.70
2019-01-08T19:00:03.741Z,6.70
2019-01-08T19:02:33.207Z,6.70
2019-01-08T19:05:02.789Z,6.80
2019-01-08T19:07:32.286Z,6.70
2019-01-08T19:10:07.639Z,6.50
2019-01-08T19:12:37.058Z,6.30
2019-01-08T19:15:06.776Z,6.10
2019-01-08T19:17:36.214Z,6.00
2019-01-08T19:20:05.684Z,6.00
2019-01-08T19:22:35.105Z,6.00
2019-01-08T19:25:05.621Z,6.00
2019-01-08T19:27:35.030Z,6.00
2019-01-08T19:30:04.844Z,6.00
2019-01-08T19:32:34.353Z,6.10
2019-01-08T19:35:03.833Z,6.20
2019-01-08T19:37:33.414Z,6.20
2019-01-08T19:40:02.841Z,6.20
2019-01-08T19:42:32.294Z,6.40
2019-01-08T19:45:01.746Z,6.50
2019-01-08T19:47:31.407Z,6.60
2019-01-08T19:50:01.218Z,6.50
2019-01-08T19:52:30.992Z,6.50
2019-01-08T19:55:00.466Z,6.60
2019-01-08T19:57:29.909Z,6.60
2019-01-08T19:59:59.526Z,6.60
2019-01-08T20:02:28.980Z,6.60
2019-01-08T20:04:58.432Z,6.50
2019-01-08T20:07:27.912Z,6.50
2019-01-08T20:09:57.410Z,6.50
2019-01-08T20:12:26.814Z,6.50
2019-01-08T20:14:56.271Z,6.50
2019-01-08T20:17:25.742Z,6.60
2019-01-08T20:19:55.178Z,6.70
2019-01-08T20:22:24.638Z,6.70
2019-01-08T20:24:54.068Z,6.70
2019-01-08T20:27:23.481Z,6.60
2019-01-08T20:29:52.891Z,6.60
2019-01-08T20:32:22.316Z,6.60
2019-01-08T20:34:51.778Z,6.60
2019-01-08T20:37:21.338Z,6.70
2019-01-08T20:39:50.759Z,6.70
2019-01-08T20:42:20.254Z,6.70
2019-01-08T20:44:49.662Z,6.70
2019-01-08T20:47:19.106Z,6.80
2019-01-08T20:49:48.590Z,6.80
2019-01-08T20:52:18.021Z,6.80
2019-01-08T20:54:47.437Z,6.70
2019-01-08T20:57:16.930Z,6.70
2019-01-08T20:59:46.436Z,6.60
2019-01-08T21:02:15.874Z,6.60
2019-01-08T21:04:45.280Z,6.50
2019-01-08T21:07:14.947Z,6.60
2019-01-08T21:09:44.383Z,6.60
2019-01-08T21:12:14.102Z,6.60
2019-01-08T21:14:43.518Z,6.60
2019-01-08T21:17:13.155Z,6.60
2019-01-08T21:19:42.622Z,6.60
2019-01-08T21:22:12.438Z,6.60
2019-01-08T21:24:41.859Z,6.40
2019-01-08T21:27:11.266Z,6.40
2019-01-08T21:29:40.686Z,6.30
2019-01-08T21:32:10.118Z,6.30
2019-01-08T21:34:44.252Z,6.30
2019-01-08T21:37:10.698Z,6.30
2019-01-08T21:39:40.337Z,6.30
2019-01-08T21:42:09.794Z,6.30
2019-01-08T21:44:39.249Z,6.30
2019-01-08T21:47:08.851Z,6.30
2019-01-08T21:49:38.481Z,6.20
2019-01-08T21:52:08.054Z,6.30
2019-01-08T21:54:37.598Z,6.20
2019-01-08T21:57:07.010Z,6.30
2019-01-08T21:59:36.430Z,6.30
2019-01-08T22:02:05.854Z,6.30
2019-01-08T22:04:35.304Z,6.30
2019-01-08T22:07:04.727Z,6.30
2019-01-08T22:09:34.162Z,6.30
2019-01-08T22:12:03.613Z,6.30
2019-01-08T22:14:33.254Z,6.40
2019-01-08T22:17:02.663Z,6.50
2019-01-08T22:19:32.080Z,6.60
2019-01-08T22:22:01.513Z,6.60
2019-01-08T22:24:30.934Z,6.60
2019-01-08T22:27:00.372Z,6.60
2019-01-08T22:29:29.795Z,6.60
2019-01-08T22:31:59.227Z,6.50
2019-01-08T22:34:28.631Z,6.50
2019-01-08T22:36:59.206Z,6.50
2019-01-08T22:39:28.877Z,6.50
2019-01-08T22:41:58.325Z,6.50
2019-01-08T22:44:27.757Z,6.50
2019-01-08T22:46:57.167Z,6.50
2019-01-08T22:49:26.586Z,6.40
2019-01-08T22:51:56.710Z,6.30
2019-01-08T22:54:26.209Z,6.30
2019-01-08T22:56:55.685Z,6.20
2019-01-08T22:59:25.135Z,5.90
2019-01-08T23:01:55.038Z,5.70
2019-01-08T23:04:24.534Z,5.50
2019-01-08T23:06:53.965Z,5.50
2019-01-08T23:09:24.168Z,5.60
2019-01-08T23:11:53.813Z,5.70
2019-01-08T23:14:23.275Z,5.70
2019-01-08T23:16:52.741Z,5.80
2019-01-08T23:19:22.218Z,5.90
2019-01-08T23:21:51.697Z,5.90
2019-01-08T23:24:21.118Z,6.00
2019-01-08T23:26:50.533Z,6.00
2019-01-08T23:29:19.987Z,6.10
2019-01-08T23:31:49.401Z,5.80
2019-01-08T23:34:18.834Z,5.30
2019-01-08T23:36:48.298Z,5.00
2019-01-08T23:39:17.897Z,4.90
2019-01-08T23:41:47.333Z,5.00
2019-01-08T23:44:16.809Z,5.00
2019-01-08T23:46:46.221Z,5.10
2019-01-08T23:49:15.641Z,5.10
2019-01-08T23:51:45.065Z,5.20
2019-01-08T23:54:14.525Z,5.20
2019-01-08T23:56:43.957Z,5.20
2019-01-08T23:59:13.388Z,5.30
